createdAt,value
2018-04-15T00:01:47.155Z,22.87
2018-04-15T00:04:16.232Z,22.53
2018-04-15T00:06:45.198Z,24.07
2018-04-15T00:09:14.166Z,22.43
2018-04-15T00:11:43.417Z,20.83
2018-04-15T00:14:12.676Z,22.15
2018-04-15T00:16:41.948Z,19.77
2018-04-15T00:19:11.264Z,20.87
2018-04-15T00:21:40.372Z,20.80
2018-04-15T00:24:09.370Z,19.37
2018-04-15T00:26:38.407Z,18.87
2018-04-15T00:29:07.367Z,18.97
2018-04-15T00:31:36.332Z,24.87
2018-04-15T00:34:05.635Z,22.30
2018-04-15T00:36:34.616Z,20.63
2018-04-15T00:39:03.373Z,24.27
2018-04-15T00:41:32.394Z,25.20
2018-04-15T00:44:01.354Z,20.63
2018-04-15T00:46:30.319Z,19.10
2018-04-15T00:48:59.702Z,20.83
2018-04-15T00:51:28.907Z,23.77
2018-04-15T00:54:08.982Z,24.47
2018-04-15T00:56:37.943Z,22.83
2018-04-15T00:59:06.979Z,26.20
2018-04-15T01:01:36.406Z,22.87
2018-04-15T01:04:05.108Z,27.17
2018-04-15T01:06:34.195Z,20.90
2018-04-15T01:09:03.508Z,24.27
2018-04-15T01:11:32.741Z,24.48
2018-04-15T01:14:01.953Z,26.47
2018-04-15T01:16:31.352Z,25.77
2018-04-15T01:19:00.499Z,30.27
2018-04-15T01:21:29.453Z,23.47
2018-04-15T01:23:58.456Z,24.43
2018-04-15T01:26:27.382Z,23.80
2018-04-15T01:28:56.334Z,23.83
2018-04-15T01:31:25.677Z,23.77
2018-04-15T01:33:54.643Z,23.07
2018-04-15T01:36:24.065Z,22.43
2018-04-15T01:38:53.075Z,23.03
2018-04-15T01:41:22.015Z,21.80
2018-04-15T01:43:50.972Z,24.43
2018-04-15T01:46:20.333Z,23.33
2018-04-15T01:48:49.290Z,22.70
2018-04-15T01:51:18.384Z,21.33
2018-04-15T01:53:47.416Z,21.63
2018-04-15T01:56:16.374Z,21.83
2018-04-15T01:58:45.638Z,21.98
2018-04-15T02:01:14.716Z,20.10
2018-04-15T02:03:43.853Z,18.27
2018-04-15T02:06:12.814Z,22.30
2018-04-15T02:08:42.050Z,19.07
2018-04-15T02:11:11.005Z,18.20
2018-04-15T02:13:39.972Z,22.80
2018-04-15T02:16:09.361Z,21.00
2018-04-15T02:18:38.516Z,21.30
2018-04-15T02:21:07.462Z,17.20
2018-04-15T02:23:37.178Z,22.10
2018-04-15T02:26:05.861Z,17.23
2018-04-15T02:28:35.119Z,18.58
2018-04-15T02:31:04.419Z,19.15
2018-04-15T02:33:39.918Z,17.47
2018-04-15T02:36:08.941Z,17.83
2018-04-15T02:38:37.910Z,18.40
2018-04-15T02:41:07.004Z,17.13
2018-04-15T02:43:36.327Z,18.37
2018-04-15T02:46:05.576Z,15.90
2018-04-15T02:48:34.898Z,16.48
2018-04-15T02:51:03.909Z,17.13
2018-04-15T02:53:32.855Z,18.75
2018-04-15T02:56:01.814Z,17.75
2018-04-15T02:58:30.833Z,19.95
2018-04-15T03:01:00.399Z,18.70
2018-04-15T03:03:29.674Z,16.00
2018-04-15T03:05:58.746Z,18.85
2018-04-15T03:08:30.549Z,18.98
2018-04-15T03:10:59.942Z,17.92
2018-04-15T03:13:30.562Z,21.72
2018-04-15T03:16:01.206Z,16.64
2018-04-15T03:18:31.633Z,19.84
2018-04-15T03:21:05.846Z,17.47
2018-04-15T03:23:34.774Z,20.87
2018-04-15T03:26:04.228Z,18.08
2018-04-15T03:28:33.286Z,20.30
2018-04-15T03:31:05.247Z,18.10
2018-04-15T03:33:36.017Z,16.27
2018-04-15T03:36:09.594Z,19.64
2018-04-15T03:38:38.906Z,17.37
2018-04-15T03:41:10.246Z,16.90
2018-04-15T03:43:40.946Z,16.66
2018-04-15T03:46:10.881Z,14.32
2018-04-15T03:48:42.627Z,17.12
2018-04-15T03:51:14.286Z,15.02
2018-04-15T03:53:45.031Z,14.43
2018-04-15T03:56:15.810Z,13.57
2018-04-15T03:58:45.116Z,11.82
2018-04-15T04:01:16.785Z,13.00
2018-04-15T04:03:48.407Z,15.78
2018-04-15T04:06:19.371Z,15.30
2018-04-15T04:08:50.411Z,13.90
2018-04-15T04:11:21.898Z,15.20
2018-04-15T04:13:52.387Z,16.20
2018-04-15T04:16:23.021Z,15.10
2018-04-15T04:19:06.163Z,15.94
2018-04-15T04:21:46.406Z,17.73
2018-04-15T04:24:26.453Z,14.13
2018-04-15T04:26:55.806Z,15.93
2018-04-15T04:29:25.034Z,16.60
2018-04-15T04:31:54.337Z,14.45
2018-04-15T04:34:23.297Z,16.67
2018-04-15T04:36:52.229Z,15.53
2018-04-15T04:39:21.302Z,13.87
2018-04-15T04:41:50.498Z,13.50
2018-04-15T04:44:19.734Z,18.23
2018-04-15T04:46:49.046Z,19.73
2018-04-15T04:49:18.416Z,14.90
2018-04-15T04:51:47.885Z,18.90
2018-04-15T04:54:19.774Z,19.30
2018-04-15T04:56:48.731Z,19.80
2018-04-15T04:59:17.761Z,17.47
2018-04-15T05:01:47.200Z,21.37
2018-04-15T05:04:17.100Z,18.45
2018-04-15T05:06:46.072Z,26.20
2018-04-15T05:09:15.414Z,23.15
2018-04-15T05:11:45.955Z,27.54
2018-04-15T05:14:14.905Z,33.90
2018-04-15T05:16:45.122Z,26.60
2018-04-15T05:19:16.738Z,24.44
2018-04-15T05:21:47.746Z,24.83
2018-04-15T05:24:22.898Z,18.78
2018-04-15T05:27:02.806Z,22.86
2018-04-15T05:29:32.267Z,20.73
2018-04-15T05:32:01.232Z,20.17
2018-04-15T05:34:30.650Z,23.52
2018-04-15T05:36:59.694Z,19.73
2018-04-15T05:39:32.103Z,18.55
2018-04-15T05:42:01.070Z,22.47
2018-04-15T05:44:30.594Z,22.25
2018-04-15T05:46:59.545Z,22.00
2018-04-15T05:49:29.270Z,26.20
2018-04-15T05:51:59.793Z,30.70
2018-04-15T05:54:31.531Z,38.06
2018-04-15T05:57:03.295Z,30.76
2018-04-15T05:59:33.032Z,31.42
2018-04-15T06:02:02.141Z,29.27
2018-04-15T06:04:31.478Z,25.17
2018-04-15T06:07:01.793Z,22.40
2018-04-15T06:09:32.864Z,28.65
2018-04-15T06:12:03.758Z,28.83
2018-04-15T06:14:35.462Z,26.10
2018-04-15T06:17:06.360Z,28.23
2018-04-15T06:19:37.459Z,24.35
2018-04-15T06:22:08.405Z,24.33
2018-04-15T06:24:39.540Z,23.98
2018-04-15T06:27:10.499Z,24.45
2018-04-15T06:29:41.501Z,22.30
2018-04-15T06:32:12.449Z,22.20
2018-04-15T06:34:43.196Z,26.70
2018-04-15T06:37:14.268Z,22.62
2018-04-15T06:39:45.063Z,23.10
2018-04-15T06:42:16.115Z,23.42
2018-04-15T06:44:46.728Z,22.42
2018-04-15T06:47:17.120Z,25.34
2018-04-15T06:49:48.625Z,23.94
2018-04-15T06:52:19.179Z,20.54
2018-04-15T06:54:49.918Z,20.84
2018-04-15T06:57:20.438Z,19.25
2018-04-15T06:59:52.157Z,19.94
2018-04-15T07:02:21.926Z,24.35
2018-04-15T07:04:52.503Z,21.52
2018-04-15T07:07:23.447Z,24.40
2018-04-15T07:09:53.853Z,22.05
2018-04-15T07:12:24.527Z,20.15
2018-04-15T07:14:55.424Z,20.20
2018-04-15T07:17:26.447Z,19.12
2018-04-15T07:19:57.546Z,18.45
2018-04-15T07:22:28.392Z,23.33
2018-04-15T07:24:59.475Z,19.83
2018-04-15T07:27:30.377Z,24.08
2018-04-15T07:30:01.822Z,21.62
2018-04-15T07:32:32.408Z,18.75
2018-04-15T07:35:03.504Z,19.30
2018-04-15T07:37:34.374Z,19.85
2018-04-15T07:40:05.580Z,18.10
2018-04-15T07:42:36.290Z,15.00
2018-04-15T07:45:07.364Z,20.67
2018-04-15T07:47:38.363Z,20.33
2018-04-15T07:50:09.438Z,18.12
2018-04-15T07:52:40.026Z,19.24
2018-04-15T07:55:09.039Z,18.97
2018-04-15T07:57:39.778Z,20.65
2018-04-15T08:00:10.705Z,21.65
2018-04-15T08:02:41.746Z,16.15
2018-04-15T08:05:12.626Z,17.45
2018-04-15T08:07:43.714Z,17.92
2018-04-15T08:10:14.676Z,16.37
2018-04-15T08:12:45.773Z,15.38
2018-04-15T08:15:18.075Z,16.73
2018-04-15T08:17:49.234Z,15.38
2018-04-15T08:20:20.212Z,18.00
2018-04-15T08:22:51.098Z,19.75
2018-04-15T08:25:22.057Z,15.25
2018-04-15T08:27:53.172Z,14.23
2018-04-15T08:30:24.133Z,20.60
2018-04-15T08:32:55.162Z,16.37
2018-04-15T08:35:26.831Z,14.50
2018-04-15T08:37:57.452Z,15.93
2018-04-15T08:40:28.379Z,12.25
2018-04-15T08:42:59.529Z,13.30
2018-04-15T08:45:30.633Z,14.63
2018-04-15T08:48:01.398Z,10.20
2018-04-15T08:50:32.261Z,15.30
2018-04-15T08:53:03.294Z,13.20
2018-04-15T08:55:34.261Z,15.68
2018-04-15T08:58:05.307Z,12.13
2018-04-15T09:00:36.381Z,11.07
2018-04-15T09:03:07.430Z,14.75
2018-04-15T09:05:38.473Z,13.57
2018-04-15T09:08:09.412Z,11.94
2018-04-15T09:10:40.286Z,14.32
2018-04-15T09:13:10.766Z,13.26
2018-04-15T09:15:41.438Z,13.50
2018-04-15T09:18:12.468Z,13.07
2018-04-15T09:20:42.713Z,12.40
2018-04-15T09:23:13.532Z,17.27
2018-04-15T09:25:45.373Z,11.22
2018-04-15T09:28:16.099Z,15.44
2018-04-15T09:33:42.715Z,15.87
2018-04-15T09:36:11.756Z,13.87
2018-04-15T09:38:40.714Z,13.97
2018-04-15T09:41:09.748Z,18.40
2018-04-15T09:43:39.058Z,14.10
2018-04-15T09:46:08.074Z,14.82
2018-04-15T09:48:37.619Z,14.98
2018-04-15T09:51:06.577Z,17.30
2018-04-15T09:53:35.572Z,11.00
2018-04-15T09:56:04.572Z,12.17
2018-04-15T09:58:33.530Z,14.60
2018-04-15T10:01:04.519Z,11.15
2018-04-15T10:03:33.486Z,14.00
2018-04-15T10:06:02.531Z,9.32
2018-04-15T10:08:31.567Z,11.53
2018-04-15T10:11:03.005Z,12.42
2018-04-15T10:13:39.733Z,15.31
2018-04-15T10:16:09.597Z,24.50
2018-04-15T10:18:38.638Z,15.00
2018-04-15T10:21:07.578Z,15.87
2018-04-15T10:23:47.338Z,12.23
2018-04-15T10:26:27.740Z,11.35
2018-04-15T10:28:57.054Z,12.15
2018-04-15T10:31:26.090Z,14.10
2018-04-15T10:33:55.048Z,19.50
2018-04-15T10:36:24.223Z,12.37
2018-04-15T10:38:53.234Z,9.77
2018-04-15T10:41:22.364Z,11.93
2018-04-15T10:43:52.034Z,13.70
2018-04-15T10:46:21.469Z,11.52
2018-04-15T10:48:57.919Z,16.99
2018-04-15T10:51:27.294Z,13.85
2018-04-15T10:53:56.265Z,15.60
2018-04-15T10:56:37.250Z,12.37
2018-04-15T10:59:06.193Z,14.00
2018-04-15T11:01:35.243Z,14.23
2018-04-15T11:04:04.413Z,12.30
2018-04-15T11:06:33.459Z,17.60
2018-04-15T11:09:03.863Z,13.05
2018-04-15T11:11:32.863Z,12.93
2018-04-15T11:14:02.313Z,15.67
2018-04-15T11:16:32.024Z,16.42
2018-04-15T11:19:07.678Z,15.46
2018-04-15T11:21:39.982Z,13.50
2018-04-15T11:24:09.483Z,14.07
2018-04-15T11:26:38.454Z,12.60
2018-04-15T11:29:09.005Z,14.00
2018-04-15T11:31:38.403Z,18.27
2018-04-15T11:34:07.371Z,13.57
2018-04-15T11:36:36.474Z,14.63
2018-04-15T11:39:05.002Z,20.20
2018-04-15T11:41:35.666Z,13.00
2018-04-15T11:44:04.658Z,21.53
2018-04-15T11:46:33.903Z,12.77
2018-04-15T11:51:45.618Z,12.80
2018-04-15T11:54:15.094Z,17.73
2018-04-15T11:56:44.653Z,10.67
2018-04-15T11:59:13.707Z,13.17
2018-04-15T12:01:42.734Z,14.30
2018-04-15T12:04:14.235Z,20.02
2018-04-15T12:06:44.836Z,21.56
2018-04-15T12:09:15.447Z,17.23
2018-04-15T12:11:47.419Z,16.84
2018-04-15T12:14:18.480Z,19.55
2018-04-15T12:16:47.533Z,16.75
2018-04-15T12:19:18.450Z,14.10
2018-04-15T12:21:50.037Z,17.36
2018-04-15T12:24:20.798Z,12.52
2018-04-15T12:26:51.391Z,17.27
2018-04-15T12:29:22.298Z,13.52
2018-04-15T12:31:52.978Z,22.30
2018-04-15T12:34:23.614Z,20.76
2018-04-15T12:36:54.304Z,12.88
2018-04-15T12:39:25.353Z,17.55
2018-04-15T12:41:56.291Z,12.25
2018-04-15T12:44:27.301Z,23.85
2018-04-15T12:46:58.272Z,16.58
2018-04-15T12:49:29.846Z,9.86
2018-04-15T12:52:00.381Z,13.38
2018-04-15T12:54:31.317Z,21.02
2018-04-15T12:57:02.281Z,12.50
2018-04-15T12:59:33.389Z,12.30
2018-04-15T13:02:04.552Z,18.00
2018-04-15T13:04:35.706Z,18.08
2018-04-15T13:07:06.675Z,14.75
2018-04-15T13:09:37.989Z,17.10
2018-04-15T13:12:08.608Z,13.58
2018-04-15T13:14:39.173Z,14.10
2018-04-15T13:17:09.786Z,12.04
2018-04-15T13:19:40.560Z,15.68
2018-04-15T13:22:11.371Z,11.82
2018-04-15T13:24:42.311Z,14.05
2018-04-15T13:27:12.928Z,13.94
2018-04-15T13:29:43.451Z,16.37
2018-04-15T13:32:14.257Z,16.62
2018-04-15T13:34:45.308Z,17.60
2018-04-15T13:37:16.277Z,17.27
2018-04-15T13:39:47.831Z,20.44
2018-04-15T13:42:18.646Z,13.48
2018-04-15T13:44:48.313Z,15.10
2018-04-15T13:47:19.095Z,12.65
2018-04-15T13:49:49.766Z,13.23
2018-04-15T13:52:20.801Z,18.30
2018-04-15T13:54:51.566Z,20.92
2018-04-15T13:57:21.790Z,21.05
2018-04-15T13:59:54.084Z,14.86
2018-04-15T14:02:24.707Z,14.95
2018-04-15T14:04:55.843Z,17.62
2018-04-15T14:07:26.591Z,13.40
2018-04-15T14:09:58.240Z,17.00
2018-04-15T14:12:28.857Z,16.25
2018-04-15T14:14:59.639Z,15.77
2018-04-15T14:17:30.551Z,12.45
2018-04-15T14:20:01.574Z,17.73
2018-04-15T14:22:32.349Z,15.85
2018-04-15T14:25:03.868Z,16.18
2018-04-15T14:27:36.145Z,14.74
2018-04-15T14:30:06.818Z,14.60
2018-04-15T14:32:37.338Z,16.67
2018-04-15T14:35:08.379Z,14.75
2018-04-15T14:37:39.878Z,13.55
2018-04-15T14:40:10.544Z,19.37
2018-04-15T14:42:41.334Z,11.27
2018-04-15T14:45:12.508Z,15.45
2018-04-15T14:47:43.247Z,13.15
2018-04-15T14:50:14.299Z,16.90
2018-04-15T14:52:45.318Z,14.15
2018-04-15T14:55:16.054Z,21.08
2018-04-15T14:57:46.719Z,20.18
2018-04-15T15:00:17.516Z,16.15
2018-04-15T15:02:48.285Z,19.33
2018-04-15T15:05:19.302Z,18.77
2018-04-15T15:07:49.886Z,24.32
2018-04-15T15:10:20.246Z,15.93
2018-04-15T15:12:51.184Z,19.55
2018-04-15T15:15:22.181Z,26.05
2018-04-15T15:17:53.145Z,17.15
2018-04-15T15:20:23.846Z,13.00
2018-04-15T15:22:54.341Z,17.87
2018-04-15T15:25:25.418Z,15.73
2018-04-15T15:27:56.146Z,20.42
2018-04-15T15:30:27.165Z,12.85
2018-04-15T15:32:58.054Z,16.67
2018-04-15T15:35:29.489Z,18.40
2018-04-15T15:38:00.961Z,17.60
2018-04-15T15:40:31.703Z,15.20
2018-04-15T15:43:02.370Z,22.42
2018-04-15T15:45:33.304Z,22.65
2018-04-15T15:48:04.282Z,16.62
2018-04-15T15:50:35.310Z,15.15
2018-04-15T15:53:06.115Z,17.87
2018-04-15T15:55:37.159Z,14.23
2018-04-15T15:58:08.146Z,17.00
2018-04-15T16:00:42.376Z,14.06
2018-04-15T16:03:11.404Z,14.73
2018-04-15T16:05:41.343Z,17.85
2018-04-15T16:08:12.016Z,14.78
2018-04-15T16:10:42.722Z,14.96
2018-04-15T16:13:12.953Z,18.42
2018-04-15T16:15:43.693Z,11.76
2018-04-15T16:18:14.502Z,15.98
2018-04-15T16:20:45.415Z,15.63
2018-04-15T16:23:16.318Z,17.60
2018-04-15T16:25:47.376Z,16.30
2018-04-15T16:28:18.265Z,18.27
2018-04-15T16:30:49.319Z,15.63
2018-04-15T16:33:20.248Z,12.75
2018-04-15T16:35:51.274Z,19.73
2018-04-15T16:38:22.249Z,18.83
2018-04-15T16:40:53.346Z,15.02
2018-04-15T16:43:24.237Z,29.42
2018-04-15T16:45:55.292Z,19.17
2018-04-15T16:48:26.246Z,17.02
2018-04-15T16:50:57.332Z,19.35
2018-04-15T16:53:28.242Z,19.55
2018-04-15T16:55:58.258Z,13.73
2018-04-15T16:58:28.943Z,19.62
2018-04-15T17:01:00.738Z,18.06
2018-04-15T17:03:31.442Z,19.08
2018-04-15T17:06:02.755Z,22.58
2018-04-15T17:08:33.461Z,13.18
2018-04-15T17:11:04.432Z,18.62
2018-04-15T17:13:34.634Z,18.77
2018-04-15T17:16:05.418Z,17.83
2018-04-15T17:18:36.647Z,13.50
2018-04-15T17:21:07.479Z,19.05
2018-04-15T17:23:38.318Z,15.32
2018-04-15T17:26:09.778Z,16.92
2018-04-15T17:28:40.339Z,15.40
2018-04-15T17:31:11.443Z,15.68
2018-04-15T17:33:42.273Z,15.15
2018-04-15T17:36:13.380Z,20.95
2018-04-15T17:38:44.340Z,20.08
2018-04-15T17:41:15.101Z,15.20
2018-04-15T17:43:45.716Z,23.14
2018-04-15T17:46:16.382Z,16.25
2018-04-15T17:48:47.297Z,21.87
2018-04-15T17:51:18.367Z,21.08
2018-04-15T17:53:49.266Z,16.48
2018-04-15T17:56:20.380Z,18.25
2018-04-15T17:58:51.581Z,15.13
2018-04-15T18:01:22.563Z,14.00
2018-04-15T18:03:53.326Z,14.82
2018-04-15T18:06:24.445Z,17.62
2018-04-15T18:08:55.358Z,13.50
2018-04-15T18:11:26.597Z,15.50
2018-04-15T18:13:57.401Z,20.00
2018-04-15T18:16:28.370Z,14.35
2018-04-15T18:18:59.362Z,23.52
2018-04-15T18:21:30.585Z,22.48
2018-04-15T18:24:01.543Z,20.62
2018-04-15T18:26:32.387Z,27.98
2018-04-15T18:29:03.450Z,30.80
2018-04-15T18:31:34.542Z,22.62
2018-04-15T18:34:05.306Z,25.70
2018-04-15T18:36:36.339Z,16.15
2018-04-15T18:39:06.730Z,21.10
2018-04-15T18:41:38.343Z,19.48
2018-04-15T18:44:09.261Z,22.62
2018-04-15T18:46:40.310Z,25.02
2018-04-15T18:49:11.641Z,23.00
2018-04-15T18:51:42.432Z,22.02
2018-04-15T18:54:12.953Z,24.60
2018-04-15T18:56:43.721Z,23.44
2018-04-15T18:59:14.261Z,24.10
2018-04-15T19:04:35.721Z,37.47
2018-04-15T19:07:04.761Z,36.40
2018-04-15T19:09:34.073Z,24.30
2018-04-15T19:12:03.265Z,22.93
2018-04-15T19:14:33.409Z,23.77
2018-04-15T19:17:02.237Z,23.47
2018-04-15T19:19:31.206Z,28.23
2018-04-15T19:22:00.133Z,25.73
2018-04-15T19:24:29.208Z,22.90
2018-04-15T19:26:59.200Z,18.23
2018-04-15T19:29:28.339Z,26.43
2018-04-15T19:31:57.991Z,28.08
2018-04-15T19:34:27.115Z,23.43
2018-04-15T19:36:56.091Z,21.97
2018-04-15T19:39:26.813Z,18.52
2018-04-15T19:41:57.543Z,19.20
2018-04-15T19:44:28.353Z,22.85
2018-04-15T19:46:58.409Z,21.85
2018-04-15T19:49:29.079Z,28.38
2018-04-15T19:52:00.095Z,25.30
2018-04-15T19:54:31.154Z,23.73
2018-04-15T19:57:02.237Z,29.25
2018-04-15T19:59:33.293Z,26.75
2018-04-15T20:02:04.374Z,19.87
2018-04-15T20:04:34.937Z,24.52
2018-04-15T20:07:05.743Z,21.28
2018-04-15T20:09:36.334Z,18.20
2018-04-15T20:12:07.607Z,24.15
2018-04-15T20:14:38.322Z,24.08
2018-04-15T20:17:09.395Z,21.20
2018-04-15T20:19:40.011Z,21.75
2018-04-15T20:22:11.392Z,19.95
2018-04-15T20:24:42.436Z,16.50
2018-04-15T20:27:13.462Z,23.05
2018-04-15T20:29:44.281Z,18.70
2018-04-15T20:32:15.320Z,19.48
2018-04-15T20:34:46.436Z,18.45
2018-04-15T20:37:17.732Z,28.17
2018-04-15T20:39:48.466Z,15.95
2018-04-15T20:42:19.303Z,20.80
2018-04-15T20:44:49.842Z,21.08
2018-04-15T20:47:20.345Z,17.40
2018-04-15T20:49:51.288Z,19.17
2018-04-15T20:52:22.262Z,18.92
2018-04-15T20:54:53.370Z,20.27
2018-04-15T20:57:23.975Z,16.70
2018-04-15T20:59:54.768Z,22.74
2018-04-15T21:02:25.373Z,21.05
2018-04-15T21:04:56.142Z,23.23
2018-04-15T21:07:26.959Z,20.85
2018-04-15T21:09:58.295Z,21.25
2018-04-15T21:12:29.301Z,18.02
2018-04-15T21:15:00.406Z,20.75
2018-04-15T21:17:31.288Z,21.10
2018-04-15T21:20:02.350Z,21.37
2018-04-15T21:22:33.265Z,21.73
2018-04-15T21:25:04.047Z,21.75
2018-04-15T21:27:35.070Z,23.48
2018-04-15T21:30:05.788Z,28.22
2018-04-15T21:32:36.435Z,23.10
2018-04-15T21:35:07.474Z,18.58
2018-04-15T21:37:38.331Z,22.55
2018-04-15T21:40:09.318Z,17.08
2018-04-15T21:42:40.291Z,19.55
2018-04-15T21:45:11.357Z,24.70
2018-04-15T21:47:42.330Z,18.25
2018-04-15T21:50:12.934Z,20.52
2018-04-15T21:52:43.810Z,15.43
2018-04-15T21:55:15.629Z,17.44
2018-04-15T21:57:46.289Z,20.17
2018-04-15T22:00:17.147Z,15.93
2018-04-15T22:02:48.114Z,21.98
2018-04-15T22:05:19.006Z,20.58
2018-04-15T22:07:50.023Z,18.02
2018-04-15T22:10:20.674Z,18.04
2018-04-15T22:12:51.366Z,24.92
2018-04-15T22:15:22.365Z,18.60
2018-04-15T22:17:53.271Z,23.35
2018-04-15T22:20:24.310Z,17.27
2018-04-15T22:22:54.930Z,20.72
2018-04-15T22:25:25.682Z,20.36
2018-04-15T22:27:56.386Z,20.52
2018-04-15T22:30:27.331Z,24.75
2018-04-15T22:32:58.334Z,16.52
2018-04-15T22:35:29.759Z,18.67
2018-04-15T22:38:00.386Z,16.92
2018-04-15T22:40:31.320Z,21.87
2018-04-15T22:43:02.292Z,19.45
2018-04-15T22:45:33.318Z,18.42
2018-04-15T22:48:06.102Z,19.83
2018-04-15T22:50:38.035Z,28.07
2018-04-15T22:53:07.294Z,16.73
2018-04-15T22:55:37.028Z,27.48
2018-04-15T22:58:07.793Z,19.36
2018-04-15T23:00:38.314Z,19.23
2018-04-15T23:03:09.330Z,17.17
2018-04-15T23:05:40.450Z,22.10
2018-04-15T23:08:11.315Z,20.35
2018-04-15T23:10:42.293Z,19.37
2018-04-15T23:13:13.382Z,14.45
2018-04-15T23:15:44.446Z,14.68
2018-04-15T23:18:15.336Z,17.08
2018-04-15T23:20:46.176Z,14.43
2018-04-15T23:23:16.876Z,15.26
2018-04-15T23:25:47.340Z,20.90
2018-04-15T23:28:18.358Z,16.45
2018-04-15T23:30:49.241Z,16.15
2018-04-15T23:33:20.277Z,26.52
2018-04-15T23:35:51.611Z,22.75
2018-04-15T23:38:22.438Z,20.67
2018-04-15T23:40:53.239Z,23.65
2018-04-15T23:43:24.274Z,21.75
2018-04-15T23:45:55.431Z,17.48
2018-04-15T23:48:26.353Z,21.50
2018-04-15T23:50:57.317Z,21.60
2018-04-15T23:53:28.364Z,21.30
2018-04-15T23:55:58.959Z,20.58
2018-04-15T23:58:29.590Z,20.70
